sensor_id;sensor_type;location;lat;lon;timestamp;temperature;humidity
2050;DHT22;8478;49.208;8.806;2023-11-19T00:02:09;12.50;99.90
2050;DHT22;8478;49.208;8.806;2023-11-19T00:04:38;12.50;99.90
2050;DHT22;8478;49.208;8.806;2023-11-19T00:07:07;12.60;99.90
2050;DHT22;8478;49.208;8.806;2023-11-19T00:09:36;12.60;99.90
2050;DHT22;8478;49.208;8.806;2023-11-19T00:12:06;12.60;99.90
2050;DHT22;8478;49.208;8.806;2023-11-19T00:14:33;12.60;99.90
2050;DHT22;8478;49.208;8.806;2023-11-19T00:17:00;12.50;99.90
2050;DHT22;8478;49.208;8.806;2023-11-19T00:19:25;12.50;99.90
2050;DHT22;8478;49.208;8.806;2023-11-19T00:21:52;12.60;99.90
2050;DHT22;8478;49.208;8.806;2023-11-19T00:24:18;12.60;99.90
2050;DHT22;8478;49.208;8.806;2023-11-19T00:26:44;12.60;99.90
2050;DHT22;8478;49.208;8.806;2023-11-19T00:29:10;12.60;99.90
2050;DHT22;8478;49.208;8.806;2023-11-19T00:31:36;12.60;99.90
2050;DHT22;8478;49.208;8.806;2023-11-19T00:34:01;12.60;99.90
2050;DHT22;8478;49.208;8.806;2023-11-19T00:36:28;12.50;99.90
2050;DHT22;8478;49.208;8.806;2023-11-19T00:38:54;12.60;99.90
2050;DHT22;8478;49.208;8.806;2023-11-19T00:41:20;12.60;99.90
2050;DHT22;8478;49.208;8.806;2023-11-19T00:43:45;12.50;99.90
2050;DHT22;8478;49.208;8.806;2023-11-19T00:46:11;12.60;99.90
2050;DHT22;8478;49.208;8.806;2023-11-19T00:48:37;12.60;99.90
2050;DHT22;8478;49.208;8.806;2023-11-19T00:51:03;12.50;99.90
2050;DHT22;8478;49.208;8.806;2023-11-19T00:53:30;12.50;99.90
2050;DHT22;8478;49.208;8.806;2023-11-19T00:55:56;12.60;99.90
2050;DHT22;8478;49.208;8.806;2023-11-19T00:58:22;12.60;99.90
2050;DHT22;8478;49.208;8.806;2023-11-19T01:00:48;12.60;99.90
2050;DHT22;8478;49.208;8.806;2023-11-19T01:03:14;12.50;99.90
2050;DHT22;8478;49.208;8.806;2023-11-19T01:05:41;12.60;99.90
2050;DHT22;8478;49.208;8.806;2023-11-19T01:08:10;12.60;99.90
2050;DHT22;8478;49.208;8.806;2023-11-19T01:10:38;12.50;99.90
2050;DHT22;8478;49.208;8.806;2023-11-19T01:13:04;12.60;99.90
2050;DHT22;8478;49.208;8.806;2023-11-19T01:15:34;12.50;99.90
2050;DHT22;8478;49.208;8.806;2023-11-19T01:17:59;12.60;99.90
2050;DHT22;8478;49.208;8.806;2023-11-19T01:20:27;12.50;99.90
2050;DHT22;8478;49.208;8.806;2023-11-19T01:22:53;12.60;99.90
2050;DHT22;8478;49.208;8.806;2023-11-19T01:25:18;12.60;99.90
2050;DHT22;8478;49.208;8.806;2023-11-19T01:27:47;12.60;99.90
2050;DHT22;8478;49.208;8.806;2023-11-19T01:30:13;12.60;99.90
2050;DHT22;8478;49.208;8.806;2023-11-19T01:32:40;12.60;99.90
2050;DHT22;8478;49.208;8.806;2023-11-19T01:35:06;12.60;99.90
2050;DHT22;8478;49.208;8.806;2023-11-19T01:37:31;12.60;99.90
2050;DHT22;8478;49.208;8.806;2023-11-19T01:39:57;12.60;99.90
2050;DHT22;8478;49.208;8.806;2023-11-19T01:42:23;12.50;99.90
2050;DHT22;8478;49.208;8.806;2023-11-19T01:45:01;12.50;99.90
2050;DHT22;8478;49.208;8.806;2023-11-19T01:47:30;12.50;99.90
2050;DHT22;8478;49.208;8.806;2023-11-19T01:49:56;12.60;99.90
2050;DHT22;8478;49.208;8.806;2023-11-19T01:52:23;12.60;99.90
2050;DHT22;8478;49.208;8.806;2023-11-19T01:54:54;12.60;99.90
2050;DHT22;8478;49.208;8.806;2023-11-19T01:57:22;12.60;99.90
2050;DHT22;8478;49.208;8.806;2023-11-19T01:59:52;12.60;99.90
2050;DHT22;8478;49.208;8.806;2023-11-19T02:02:19;12.60;99.90
2050;DHT22;8478;49.208;8.806;2023-11-19T02:04:47;12.60;99.90
2050;DHT22;8478;49.208;8.806;2023-11-19T02:07:14;12.60;99.90
2050;DHT22;8478;49.208;8.806;2023-11-19T02:09:43;12.50;99.90
2050;DHT22;8478;49.208;8.806;2023-11-19T02:12:10;12.60;99.90
2050;DHT22;8478;49.208;8.806;2023-11-19T02:14:42;12.60;99.90
2050;DHT22;8478;49.208;8.806;2023-11-19T02:17:25;12.60;99.90
2050;DHT22;8478;49.208;8.806;2023-11-19T02:19:52;12.50;99.90
2050;DHT22;8478;49.208;8.806;2023-11-19T02:22:17;12.60;99.90
2050;DHT22;8478;49.208;8.806;2023-11-19T02:24:45;12.60;99.90
2050;DHT22;8478;49.208;8.806;2023-11-19T02:27:40;12.60;99.90
2050;DHT22;8478;49.208;8.806;2023-11-19T02:30:02;12.60;99.90
2050;DHT22;8478;49.208;8.806;2023-11-19T02:32:31;12.60;99.90
2050;DHT22;8478;49.208;8.806;2023-11-19T02:34:57;12.60;99.90
2050;DHT22;8478;49.208;8.806;2023-11-19T02:37:23;12.60;99.90
2050;DHT22;8478;49.208;8.806;2023-11-19T02:39:49;12.60;99.90
2050;DHT22;8478;49.208;8.806;2023-11-19T02:42:15;12.60;99.90
2050;DHT22;8478;49.208;8.806;2023-11-19T02:44:44;12.60;99.90
2050;DHT22;8478;49.208;8.806;2023-11-19T02:47:10;12.60;99.90
2050;DHT22;8478;49.208;8.806;2023-11-19T02:49:36;12.60;99.90
2050;DHT22;8478;49.208;8.806;2023-11-19T02:52:03;12.60;99.90
2050;DHT22;8478;49.208;8.806;2023-11-19T02:54:31;12.60;99.90
2050;DHT22;8478;49.208;8.806;2023-11-19T02:57:01;12.60;99.90
2050;DHT22;8478;49.208;8.806;2023-11-19T02:59:29;12.60;99.90
2050;DHT22;8478;49.208;8.806;2023-11-19T03:02:07;12.60;99.90
2050;DHT22;8478;49.208;8.806;2023-11-19T03:04:40;12.60;99.90
2050;DHT22;8478;49.208;8.806;2023-11-19T03:07:06;12.60;99.90
2050;DHT22;8478;49.208;8.806;2023-11-19T03:09:39;12.60;99.90
2050;DHT22;8478;49.208;8.806;2023-11-19T03:12:06;12.60;99.90
2050;DHT22;8478;49.208;8.806;2023-11-19T03:14:36;12.60;99.90
2050;DHT22;8478;49.208;8.806;2023-11-19T03:17:03;12.70;99.90
2050;DHT22;8478;49.208;8.806;2023-11-19T03:19:30;12.60;99.90
2050;DHT22;8478;49.208;8.806;2023-11-19T03:21:59;12.60;99.90
2050;DHT22;8478;49.208;8.806;2023-11-19T03:24:25;12.70;99.90
2050;DHT22;8478;49.208;8.806;2023-11-19T03:26:50;12.70;99.90
2050;DHT22;8478;49.208;8.806;2023-11-19T03:29:16;12.60;99.90
2050;DHT22;8478;49.208;8.806;2023-11-19T03:31:42;12.60;99.90
2050;DHT22;8478;49.208;8.806;2023-11-19T03:34:08;12.60;99.90
2050;DHT22;8478;49.208;8.806;2023-11-19T03:36:34;12.60;99.90
2050;DHT22;8478;49.208;8.806;2023-11-19T03:39:00;12.70;99.90
2050;DHT22;8478;49.208;8.806;2023-11-19T03:41:25;12.70;99.90
2050;DHT22;8478;49.208;8.806;2023-11-19T03:43:51;12.60;99.90
2050;DHT22;8478;49.208;8.806;2023-11-19T03:46:20;12.70;99.90
2050;DHT22;8478;49.208;8.806;2023-11-19T03:48:50;12.60;99.90
2050;DHT22;8478;49.208;8.806;2023-11-19T03:51:16;12.70;99.90
2050;DHT22;8478;49.208;8.806;2023-11-19T03:53:46;12.70;99.90
2050;DHT22;8478;49.208;8.806;2023-11-19T03:56:12;12.70;99.90
2050;DHT22;8478;49.208;8.806;2023-11-19T03:58:38;12.70;99.90
2050;DHT22;8478;49.208;8.806;2023-11-19T04:01:13;12.70;99.90
2050;DHT22;8478;49.208;8.806;2023-11-19T04:03:42;12.70;99.90
2050;DHT22;8478;49.208;8.806;2023-11-19T04:06:08;12.70;99.90
2050;DHT22;8478;49.208;8.806;2023-11-19T04:08:33;12.70;99.90
2050;DHT22;8478;49.208;8.806;2023-11-19T04:11:00;12.70;99.90
2050;DHT22;8478;49.208;8.806;2023-11-19T04:13:26;12.70;99.90
2050;DHT22;8478;49.208;8.806;2023-11-19T04:15:52;12.70;99.90
2050;DHT22;8478;49.208;8.806;2023-11-19T04:18:18;12.70;99.90
2050;DHT22;8478;49.208;8.806;2023-11-19T04:20:43;12.70;99.90
2050;DHT22;8478;49.208;8.806;2023-11-19T04:23:09;12.70;99.90
2050;DHT22;8478;49.208;8.806;2023-11-19T04:25:37;12.70;99.90
2050;DHT22;8478;49.208;8.806;2023-11-19T04:28:03;12.70;99.90
2050;DHT22;8478;49.208;8.806;2023-11-19T04:30:29;12.70;99.90
2050;DHT22;8478;49.208;8.806;2023-11-19T04:32:57;12.70;99.90
2050;DHT22;8478;49.208;8.806;2023-11-19T04:35:23;12.70;99.90
2050;DHT22;8478;49.208;8.806;2023-11-19T04:37:49;12.70;99.90
2050;DHT22;8478;49.208;8.806;2023-11-19T04:40:18;12.70;99.90
2050;DHT22;8478;49.208;8.806;2023-11-19T04:42:44;12.70;99.90
2050;DHT22;8478;49.208;8.806;2023-11-19T04:45:10;12.70;99.90
2050;DHT22;8478;49.208;8.806;2023-11-19T04:47:39;12.70;99.90
2050;DHT22;8478;49.208;8.806;2023-11-19T04:50:08;12.70;99.90
2050;DHT22;8478;49.208;8.806;2023-11-19T04:52:40;12.70;99.90
2050;DHT22;8478;49.208;8.806;2023-11-19T04:55:06;12.80;99.90
2050;DHT22;8478;49.208;8.806;2023-11-19T04:57:31;12.80;99.90
2050;DHT22;8478;49.208;8.806;2023-11-19T04:59:58;12.70;99.90
2050;DHT22;8478;49.208;8.806;2023-11-19T05:02:24;12.80;99.90
2050;DHT22;8478;49.208;8.806;2023-11-19T05:04:50;12.70;99.90
2050;DHT22;8478;49.208;8.806;2023-11-19T05:07:15;12.80;99.90
2050;DHT22;8478;49.208;8.806;2023-11-19T05:09:41;12.80;99.90
2050;DHT22;8478;49.208;8.806;2023-11-19T05:12:08;12.80;99.90
2050;DHT22;8478;49.208;8.806;2023-11-19T05:14:37;12.80;99.90
2050;DHT22;8478;49.208;8.806;2023-11-19T05:17:03;12.80;99.90
2050;DHT22;8478;49.208;8.806;2023-11-19T05:19:29;12.80;99.90
2050;DHT22;8478;49.208;8.806;2023-11-19T05:21:55;12.80;99.90
2050;DHT22;8478;49.208;8.806;2023-11-19T05:24:20;12.80;99.90
2050;DHT22;8478;49.208;8.806;2023-11-19T05:26:46;12.80;99.90
2050;DHT22;8478;49.208;8.806;2023-11-19T05:29:15;12.80;99.90
2050;DHT22;8478;49.208;8.806;2023-11-19T05:31:41;12.80;99.90
2050;DHT22;8478;49.208;8.806;2023-11-19T05:34:06;12.80;99.90
2050;DHT22;8478;49.208;8.806;2023-11-19T05:36:33;12.80;99.90
2050;DHT22;8478;49.208;8.806;2023-11-19T05:38:58;12.80;99.90
2050;DHT22;8478;49.208;8.806;2023-11-19T05:41:24;12.80;99.90
2050;DHT22;8478;49.208;8.806;2023-11-19T05:43:49;12.80;99.90
2050;DHT22;8478;49.208;8.806;2023-11-19T05:46:15;12.80;99.90
2050;DHT22;8478;49.208;8.806;2023-11-19T05:48:42;12.80;99.90
2050;DHT22;8478;49.208;8.806;2023-11-19T05:51:08;12.80;99.90
2050;DHT22;8478;49.208;8.806;2023-11-19T05:53:33;12.80;99.90
2050;DHT22;8478;49.208;8.806;2023-11-19T05:55:59;12.80;99.90
2050;DHT22;8478;49.208;8.806;2023-11-19T05:58:29;12.80;99.90
2050;DHT22;8478;49.208;8.806;2023-11-19T06:00:56;12.80;99.90
2050;DHT22;8478;49.208;8.806;2023-11-19T06:03:22;12.80;99.90
2050;DHT22;8478;49.208;8.806;2023-11-19T06:05:48;12.80;99.90
2050;DHT22;8478;49.208;8.806;2023-11-19T06:08:14;12.80;99.90
2050;DHT22;8478;49.208;8.806;2023-11-19T06:10:44;12.80;99.90
2050;DHT22;8478;49.208;8.806;2023-11-19T06:13:12;12.80;99.90
2050;DHT22;8478;49.208;8.806;2023-11-19T06:15:38;12.80;99.90
2050;DHT22;8478;49.208;8.806;2023-11-19T06:18:03;12.80;99.90
2050;DHT22;8478;49.208;8.806;2023-11-19T06:20:30;12.80;99.90
2050;DHT22;8478;49.208;8.806;2023-11-19T06:22:56;12.80;99.90
2050;DHT22;8478;49.208;8.806;2023-11-19T06:25:22;12.90;99.90
2050;DHT22;8478;49.208;8.806;2023-11-19T06:27:49;12.90;99.90
2050;DHT22;8478;49.208;8.806;2023-11-19T06:30:15;12.90;99.90
2050;DHT22;8478;49.208;8.806;2023-11-19T06:32:42;12.90;99.90
2050;DHT22;8478;49.208;8.806;2023-11-19T06:35:08;12.90;99.90
2050;DHT22;8478;49.208;8.806;2023-11-19T06:37:43;12.90;99.90
2050;DHT22;8478;49.208;8.806;2023-11-19T06:40:09;12.90;99.90
2050;DHT22;8478;49.208;8.806;2023-11-19T06:42:36;12.90;99.90
2050;DHT22;8478;49.208;8.806;2023-11-19T06:45:02;12.90;99.90
2050;DHT22;8478;49.208;8.806;2023-11-19T06:47:29;12.90;99.90
2050;DHT22;8478;49.208;8.806;2023-11-19T06:49:55;12.90;99.90
2050;DHT22;8478;49.208;8.806;2023-11-19T06:52:21;12.90;99.90
2050;DHT22;8478;49.208;8.806;2023-11-19T06:54:47;12.90;99.90
2050;DHT22;8478;49.208;8.806;2023-11-19T06:57:13;12.90;99.90
2050;DHT22;8478;49.208;8.806;2023-11-19T06:59:38;12.90;99.90
2050;DHT22;8478;49.208;8.806;2023-11-19T07:02:05;12.90;99.90
2050;DHT22;8478;49.208;8.806;2023-11-19T07:04:31;12.90;99.90
2050;DHT22;8478;49.208;8.806;2023-11-19T07:06:57;12.90;99.90
2050;DHT22;8478;49.208;8.806;2023-11-19T07:09:22;12.90;99.90
2050;DHT22;8478;49.208;8.806;2023-11-19T07:11:49;12.90;99.90
2050;DHT22;8478;49.208;8.806;2023-11-19T07:14:17;12.90;99.90
2050;DHT22;8478;49.208;8.806;2023-11-19T07:16:43;12.90;99.90
2050;DHT22;8478;49.208;8.806;2023-11-19T07:19:09;12.90;99.90
2050;DHT22;8478;49.208;8.806;2023-11-19T07:21:34;12.90;99.90
2050;DHT22;8478;49.208;8.806;2023-11-19T07:24:03;12.90;99.90
2050;DHT22;8478;49.208;8.806;2023-11-19T07:26:28;12.90;99.90
2050;DHT22;8478;49.208;8.806;2023-11-19T07:28:54;12.90;99.90
2050;DHT22;8478;49.208;8.806;2023-11-19T07:31:21;12.90;99.90
2050;DHT22;8478;49.208;8.806;2023-11-19T07:33:47;12.90;99.90
2050;DHT22;8478;49.208;8.806;2023-11-19T07:36:15;12.90;99.90
2050;DHT22;8478;49.208;8.806;2023-11-19T07:38:41;12.90;99.90
2050;DHT22;8478;49.208;8.806;2023-11-19T07:41:08;13.00;99.90
2050;DHT22;8478;49.208;8.806;2023-11-19T07:43:39;12.90;99.90
2050;DHT22;8478;49.208;8.806;2023-11-19T07:46:10;12.90;99.90
2050;DHT22;8478;49.208;8.806;2023-11-19T07:48:38;12.90;99.90
2050;DHT22;8478;49.208;8.806;2023-11-19T07:51:04;12.90;99.90
2050;DHT22;8478;49.208;8.806;2023-11-19T07:53:30;13.00;99.90
2050;DHT22;8478;49.208;8.806;2023-11-19T07:55:56;13.00;99.90
2050;DHT22;8478;49.208;8.806;2023-11-19T07:58:21;13.00;99.90
2050;DHT22;8478;49.208;8.806;2023-11-19T08:00:47;13.00;99.90
2050;DHT22;8478;49.208;8.806;2023-11-19T08:03:13;13.00;99.90
2050;DHT22;8478;49.208;8.806;2023-11-19T08:05:38;13.00;99.90
2050;DHT22;8478;49.208;8.806;2023-11-19T08:08:04;13.00;99.90
2050;DHT22;8478;49.208;8.806;2023-11-19T08:10:30;13.00;99.90
2050;DHT22;8478;49.208;8.806;2023-11-19T08:12:56;13.00;99.90
2050;DHT22;8478;49.208;8.806;2023-11-19T08:15:21;13.00;99.90
2050;DHT22;8478;49.208;8.806;2023-11-19T08:17:47;13.00;99.90
2050;DHT22;8478;49.208;8.806;2023-11-19T08:20:13;13.00;99.90
2050;DHT22;8478;49.208;8.806;2023-11-19T08:22:39;13.00;99.90
2050;DHT22;8478;49.208;8.806;2023-11-19T08:25:08;13.00;99.90
2050;DHT22;8478;49.208;8.806;2023-11-19T08:27:33;13.00;99.90
2050;DHT22;8478;49.208;8.806;2023-11-19T08:29:59;13.00;99.90
2050;DHT22;8478;49.208;8.806;2023-11-19T08:32:26;13.00;99.90
2050;DHT22;8478;49.208;8.806;2023-11-19T08:34:51;13.00;99.90
2050;DHT22;8478;49.208;8.806;2023-11-19T08:37:17;13.00;99.90
2050;DHT22;8478;49.208;8.806;2023-11-19T08:39:49;13.00;99.90
2050;DHT22;8478;49.208;8.806;2023-11-19T08:42:15;13.00;99.90
2050;DHT22;8478;49.208;8.806;2023-11-19T08:44:41;13.00;99.90
2050;DHT22;8478;49.208;8.806;2023-11-19T08:47:13;13.00;99.90
2050;DHT22;8478;49.208;8.806;2023-11-19T08:49:39;13.00;99.90
2050;DHT22;8478;49.208;8.806;2023-11-19T08:52:05;13.00;99.90
2050;DHT22;8478;49.208;8.806;2023-11-19T08:54:33;13.00;99.90
2050;DHT22;8478;49.208;8.806;2023-11-19T08:56:58;13.00;99.90
2050;DHT22;8478;49.208;8.806;2023-11-19T08:59:25;13.00;99.90
2050;DHT22;8478;49.208;8.806;2023-11-19T09:01:50;13.00;99.90
2050;DHT22;8478;49.208;8.806;2023-11-19T09:04:16;13.10;99.90
2050;DHT22;8478;49.208;8.806;2023-11-19T09:06:42;13.10;99.90
2050;DHT22;8478;49.208;8.806;2023-11-19T09:09:08;13.00;99.90
2050;DHT22;8478;49.208;8.806;2023-11-19T09:11:35;13.10;99.90
2050;DHT22;8478;49.208;8.806;2023-11-19T09:14:00;13.10;99.90
2050;DHT22;8478;49.208;8.806;2023-11-19T09:16:26;13.00;99.90
2050;DHT22;8478;49.208;8.806;2023-11-19T09:18:52;13.00;99.90
2050;DHT22;8478;49.208;8.806;2023-11-19T09:21:17;13.10;99.90
2050;DHT22;8478;49.208;8.806;2023-11-19T09:23:43;13.10;99.90
2050;DHT22;8478;49.208;8.806;2023-11-19T09:26:09;13.10;99.90
2050;DHT22;8478;49.208;8.806;2023-11-19T09:28:37;13.10;99.90
2050;DHT22;8478;49.208;8.806;2023-11-19T09:31:15;13.10;99.90
2050;DHT22;8478;49.208;8.806;2023-11-19T09:33:41;13.10;99.90
2050;DHT22;8478;49.208;8.806;2023-11-19T09:36:08;13.10;99.90
2050;DHT22;8478;49.208;8.806;2023-11-19T09:38:34;13.10;99.90
2050;DHT22;8478;49.208;8.806;2023-11-19T09:41:07;13.10;99.90
2050;DHT22;8478;49.208;8.806;2023-11-19T09:43:34;13.10;99.90
2050;DHT22;8478;49.208;8.806;2023-11-19T09:46:05;13.10;99.90
2050;DHT22;8478;49.208;8.806;2023-11-19T09:48:35;13.10;99.90
2050;DHT22;8478;49.208;8.806;2023-11-19T09:51:06;13.10;99.90
2050;DHT22;8478;49.208;8.806;2023-11-19T09:53:33;13.10;99.90
2050;DHT22;8478;49.208;8.806;2023-11-19T09:56:00;13.10;99.90
2050;DHT22;8478;49.208;8.806;2023-11-19T09:58:29;13.20;99.90
2050;DHT22;8478;49.208;8.806;2023-11-19T10:00:55;13.10;99.90
2050;DHT22;8478;49.208;8.806;2023-11-19T10:03:24;13.10;99.90
2050;DHT22;8478;49.208;8.806;2023-11-19T10:05:53;13.20;99.90
2050;DHT22;8478;49.208;8.806;2023-11-19T10:08:20;13.20;99.90
2050;DHT22;8478;49.208;8.806;2023-11-19T10:10:45;13.10;99.90
2050;DHT22;8478;49.208;8.806;2023-11-19T10:13:11;13.20;99.90
2050;DHT22;8478;49.208;8.806;2023-11-19T10:15:39;13.10;99.90
2050;DHT22;8478;49.208;8.806;2023-11-19T10:18:05;13.20;99.90
2050;DHT22;8478;49.208;8.806;2023-11-19T10:20:38;13.20;99.90
2050;DHT22;8478;49.208;8.806;2023-11-19T10:23:05;13.10;99.90
2050;DHT22;8478;49.208;8.806;2023-11-19T10:25:32;13.20;99.90
2050;DHT22;8478;49.208;8.806;2023-11-19T10:27:59;13.20;99.90
2050;DHT22;8478;49.208;8.806;2023-11-19T10:30:30;13.20;99.90
2050;DHT22;8478;49.208;8.806;2023-11-19T10:35:53;13.20;99.90
2050;DHT22;8478;49.208;8.806;2023-11-19T10:38:20;13.20;99.90
2050;DHT22;8478;49.208;8.806;2023-11-19T10:40:48;13.20;99.90
2050;DHT22;8478;49.208;8.806;2023-11-19T10:43:13;13.20;99.90
2050;DHT22;8478;49.208;8.806;2023-11-19T10:45:40;13.20;99.90
2050;DHT22;8478;49.208;8.806;2023-11-19T10:48:07;13.20;99.90
2050;DHT22;8478;49.208;8.806;2023-11-19T10:50:37;13.20;99.90
2050;DHT22;8478;49.208;8.806;2023-11-19T10:53:04;13.20;99.90
2050;DHT22;8478;49.208;8.806;2023-11-19T10:55:34;13.20;99.90
2050;DHT22;8478;49.208;8.806;2023-11-19T10:58:10;13.30;99.90
2050;DHT22;8478;49.208;8.806;2023-11-19T11:00:55;13.20;99.90
2050;DHT22;8478;49.208;8.806;2023-11-19T11:03:25;13.20;99.90
2050;DHT22;8478;49.208;8.806;2023-11-19T11:05:52;13.20;99.90
2050;DHT22;8478;49.208;8.806;2023-11-19T11:08:19;13.20;99.90
2050;DHT22;8478;49.208;8.806;2023-11-19T11:10:55;13.30;99.90
2050;DHT22;8478;49.208;8.806;2023-11-19T11:13:23;13.30;99.90
2050;DHT22;8478;49.208;8.806;2023-11-19T11:15:58;13.30;99.90
2050;DHT22;8478;49.208;8.806;2023-11-19T11:18:24;13.30;99.90
2050;DHT22;8478;49.208;8.806;2023-11-19T11:21:07;13.30;99.90
2050;DHT22;8478;49.208;8.806;2023-11-19T11:26:53;13.30;99.90
2050;DHT22;8478;49.208;8.806;2023-11-19T11:30:07;13.30;99.90
2050;DHT22;8478;49.208;8.806;2023-11-19T11:34:51;13.30;99.90
2050;DHT22;8478;49.208;8.806;2023-11-19T11:40:04;13.30;99.90
2050;DHT22;8478;49.208;8.806;2023-11-19T11:42:38;13.30;99.90
2050;DHT22;8478;49.208;8.806;2023-11-19T11:45:13;13.30;99.90
2050;DHT22;8478;49.208;8.806;2023-11-19T11:50:16;13.30;99.90
2050;DHT22;8478;49.208;8.806;2023-11-19T11:55:26;13.30;99.90
2050;DHT22;8478;49.208;8.806;2023-11-19T11:57:52;13.30;99.90
2050;DHT22;8478;49.208;8.806;2023-11-19T12:00:33;13.30;99.90
2050;DHT22;8478;49.208;8.806;2023-11-19T12:03:05;13.40;99.90
2050;DHT22;8478;49.208;8.806;2023-11-19T12:05:32;13.40;99.90
2050;DHT22;8478;49.208;8.806;2023-11-19T12:08:06;13.30;99.90
2050;DHT22;8478;49.208;8.806;2023-11-19T12:10:49;13.30;99.90
2050;DHT22;8478;49.208;8.806;2023-11-19T12:13:16;13.40;99.90
2050;DHT22;8478;49.208;8.806;2023-11-19T12:20:50;13.40;99.90
2050;DHT22;8478;49.208;8.806;2023-11-19T12:23:16;13.40;99.90
2050;DHT22;8478;49.208;8.806;2023-11-19T12:25:41;13.40;99.90
2050;DHT22;8478;49.208;8.806;2023-11-19T12:28:12;13.40;99.90
2050;DHT22;8478;49.208;8.806;2023-11-19T12:30:38;13.40;99.90
2050;DHT22;8478;49.208;8.806;2023-11-19T12:33:11;13.40;99.90
2050;DHT22;8478;49.208;8.806;2023-11-19T12:35:40;13.40;99.90
2050;DHT22;8478;49.208;8.806;2023-11-19T12:38:06;13.40;99.90
2050;DHT22;8478;49.208;8.806;2023-11-19T12:40:32;13.40;99.90
2050;DHT22;8478;49.208;8.806;2023-11-19T12:42:59;13.40;99.90
2050;DHT22;8478;49.208;8.806;2023-11-19T12:45:37;13.40;99.90
2050;DHT22;8478;49.208;8.806;2023-11-19T12:48:05;13.40;99.90
2050;DHT22;8478;49.208;8.806;2023-11-19T12:50:53;13.40;99.90
2050;DHT22;8478;49.208;8.806;2023-11-19T12:53:20;13.40;99.90
2050;DHT22;8478;49.208;8.806;2023-11-19T12:55:46;13.40;99.90
2050;DHT22;8478;49.208;8.806;2023-11-19T12:58:33;13.40;99.90
2050;DHT22;8478;49.208;8.806;2023-11-19T13:01:00;13.40;99.90
2050;DHT22;8478;49.208;8.806;2023-11-19T13:03:30;13.40;99.90
2050;DHT22;8478;49.208;8.806;2023-11-19T13:06:04;13.40;99.90
2050;DHT22;8478;49.208;8.806;2023-11-19T13:08:41;13.50;99.90
2050;DHT22;8478;49.208;8.806;2023-11-19T13:11:09;13.40;99.90
2050;DHT22;8478;49.208;8.806;2023-11-19T13:13:57;13.50;99.90
2050;DHT22;8478;49.208;8.806;2023-11-19T13:16:24;13.50;99.90
2050;DHT22;8478;49.208;8.806;2023-11-19T13:18:49;13.50;99.90
2050;DHT22;8478;49.208;8.806;2023-11-19T13:21:15;13.50;99.90
2050;DHT22;8478;49.208;8.806;2023-11-19T13:23:41;13.50;99.90
2050;DHT22;8478;49.208;8.806;2023-11-19T13:26:07;13.50;99.90
2050;DHT22;8478;49.208;8.806;2023-11-19T13:28:32;13.50;99.90
2050;DHT22;8478;49.208;8.806;2023-11-19T13:30:58;13.50;99.90
2050;DHT22;8478;49.208;8.806;2023-11-19T13:33:24;13.50;99.90
2050;DHT22;8478;49.208;8.806;2023-11-19T13:35:49;13.50;99.90
2050;DHT22;8478;49.208;8.806;2023-11-19T13:38:15;13.50;99.90
2050;DHT22;8478;49.208;8.806;2023-11-19T13:40:41;13.50;99.90
2050;DHT22;8478;49.208;8.806;2023-11-19T13:43:06;13.50;99.90
2050;DHT22;8478;49.208;8.806;2023-11-19T13:45:32;13.50;99.90
2050;DHT22;8478;49.208;8.806;2023-11-19T13:47:58;13.50;99.90
2050;DHT22;8478;49.208;8.806;2023-11-19T13:50:24;13.50;99.90
2050;DHT22;8478;49.208;8.806;2023-11-19T13:52:50;13.50;99.90
2050;DHT22;8478;49.208;8.806;2023-11-19T13:55:15;13.50;99.90
2050;DHT22;8478;49.208;8.806;2023-11-19T13:57:42;13.50;99.90
2050;DHT22;8478;49.208;8.806;2023-11-19T14:00:11;13.50;99.90
2050;DHT22;8478;49.208;8.806;2023-11-19T14:02:45;13.50;99.90
2050;DHT22;8478;49.208;8.806;2023-11-19T14:05:13;13.50;99.90
2050;DHT22;8478;49.208;8.806;2023-11-19T14:07:39;13.50;99.90
2050;DHT22;8478;49.208;8.806;2023-11-19T14:10:06;13.50;99.90
2050;DHT22;8478;49.208;8.806;2023-11-19T14:12:33;13.50;99.90
2050;DHT22;8478;49.208;8.806;2023-11-19T14:14:59;13.50;99.90
2050;DHT22;8478;49.208;8.806;2023-11-19T14:17:26;13.50;99.90
2050;DHT22;8478;49.208;8.806;2023-11-19T14:19:51;13.50;99.90
2050;DHT22;8478;49.208;8.806;2023-11-19T14:22:17;13.50;99.90
2050;DHT22;8478;49.208;8.806;2023-11-19T14:24:43;13.50;99.90
2050;DHT22;8478;49.208;8.806;2023-11-19T14:27:09;13.50;99.90
2050;DHT22;8478;49.208;8.806;2023-11-19T14:29:36;13.50;99.90
2050;DHT22;8478;49.208;8.806;2023-11-19T14:32:02;13.50;99.90
2050;DHT22;8478;49.208;8.806;2023-11-19T14:34:31;13.50;99.90
2050;DHT22;8478;49.208;8.806;2023-11-19T14:36:58;13.50;99.90
2050;DHT22;8478;49.208;8.806;2023-11-19T14:39:24;13.50;99.90
2050;DHT22;8478;49.208;8.806;2023-11-19T14:41:50;13.50;99.90
2050;DHT22;8478;49.208;8.806;2023-11-19T14:44:17;13.50;99.90
2050;DHT22;8478;49.208;8.806;2023-11-19T14:46:43;13.50;99.90
2050;DHT22;8478;49.208;8.806;2023-11-19T14:49:09;13.50;99.90
2050;DHT22;8478;49.208;8.806;2023-11-19T14:51:38;13.50;99.90
2050;DHT22;8478;49.208;8.806;2023-11-19T14:54:04;13.60;99.90
2050;DHT22;8478;49.208;8.806;2023-11-19T14:56:31;13.60;99.90
2050;DHT22;8478;49.208;8.806;2023-11-19T14:58:56;13.60;99.90
2050;DHT22;8478;49.208;8.806;2023-11-19T15:01:22;13.60;99.90
2050;DHT22;8478;49.208;8.806;2023-11-19T15:03:48;13.60;99.90
2050;DHT22;8478;49.208;8.806;2023-11-19T15:06:13;13.60;99.90
2050;DHT22;8478;49.208;8.806;2023-11-19T15:08:40;13.60;99.90
2050;DHT22;8478;49.208;8.806;2023-11-19T15:11:07;13.60;99.90
2050;DHT22;8478;49.208;8.806;2023-11-19T15:13:35;13.60;99.90
2050;DHT22;8478;49.208;8.806;2023-11-19T15:16:03;13.60;99.90
2050;DHT22;8478;49.208;8.806;2023-11-19T15:18:31;13.70;99.90
2050;DHT22;8478;49.208;8.806;2023-11-19T15:20:57;13.70;99.90
2050;DHT22;8478;49.208;8.806;2023-11-19T15:23:23;13.80;99.90
2050;DHT22;8478;49.208;8.806;2023-11-19T15:25:48;13.80;99.90
2050;DHT22;8478;49.208;8.806;2023-11-19T15:28:15;13.80;99.90
2050;DHT22;8478;49.208;8.806;2023-11-19T15:30:40;13.80;99.90
2050;DHT22;8478;49.208;8.806;2023-11-19T15:33:06;13.80;99.90
2050;DHT22;8478;49.208;8.806;2023-11-19T15:35:34;13.70;99.90
2050;DHT22;8478;49.208;8.806;2023-11-19T15:38:00;13.70;99.90
2050;DHT22;8478;49.208;8.806;2023-11-19T15:40:26;13.70;99.90
2050;DHT22;8478;49.208;8.806;2023-11-19T15:42:53;13.70;99.90
2050;DHT22;8478;49.208;8.806;2023-11-19T15:45:20;13.70;99.90
2050;DHT22;8478;49.208;8.806;2023-11-19T15:47:46;13.70;99.90
2050;DHT22;8478;49.208;8.806;2023-11-19T15:50:12;13.70;99.90
2050;DHT22;8478;49.208;8.806;2023-11-19T15:52:37;13.70;99.90
2050;DHT22;8478;49.208;8.806;2023-11-19T15:55:04;13.70;99.90
2050;DHT22;8478;49.208;8.806;2023-11-19T15:57:29;13.70;99.90
2050;DHT22;8478;49.208;8.806;2023-11-19T15:59:55;13.60;99.90
2050;DHT22;8478;49.208;8.806;2023-11-19T16:02:21;13.60;99.90
2050;DHT22;8478;49.208;8.806;2023-11-19T16:04:46;13.60;99.90
2050;DHT22;8478;49.208;8.806;2023-11-19T16:07:16;13.60;99.90
2050;DHT22;8478;49.208;8.806;2023-11-19T16:09:43;13.60;99.90
2050;DHT22;8478;49.208;8.806;2023-11-19T16:12:09;13.60;99.90
2050;DHT22;8478;49.208;8.806;2023-11-19T16:14:36;13.60;99.90
2050;DHT22;8478;49.208;8.806;2023-11-19T16:17:01;13.60;99.90
2050;DHT22;8478;49.208;8.806;2023-11-19T16:19:27;13.60;99.90
2050;DHT22;8478;49.208;8.806;2023-11-19T16:21:53;13.60;99.90
2050;DHT22;8478;49.208;8.806;2023-11-19T16:24:19;13.60;99.90
2050;DHT22;8478;49.208;8.806;2023-11-19T16:26:45;13.60;99.90